This is the latest recevied weather packets stored in our database for station/object HUGOCO. If no packets are shown the sender has not sent any weather packets the latest 10 day(s).
| Time | Temp. | Humidity | Pressure | Rain* | Wind** | Luminosity | Snow |
|---|---|---|---|---|---|---|---|
| 1777705569 | 5° C | 72% | 1023.8 hPa | 0 mm | - | - | - |
| 1777705269 | 5° C | 71% | 1023.5 hPa | 0 mm | - | - | - |
| 1777704970 | 5° C | 70% | 1023.8 hPa | 0 mm | - | - | - |
| 1777704669 | 5° C | 69% | 1023.6 hPa | 0 mm | - | - | - |
| 1777704369 | 5° C | 68% | 1023.8 hPa | 0 mm | - | - | - |
| 1777704069 | 5° C | 67% | 1023.8 hPa | 0 mm | - | - | - |
| 1777703769 | 5° C | 66% | 1023.6 hPa | 0 mm | - | - | - |
| 1777703469 | 5.56° C | 63% | 1023.6 hPa | 0 mm | - | - | - |
| 1777703169 | 5.56° C | 62% | 1023.7 hPa | 0 mm | - | - | - |
| 1777702869 | 6.11° C | 59% | 1023.7 hPa | 0 mm | - | - | - |
| 1777702569 | 6.67° C | 54% | 1023.7 hPa | 0 mm | - | - | - |
| 1777702269 | 7.22° C | 49% | 1023.7 hPa | 0 mm | - | - | - |
| 1777701969 | 8.33° C | 43% | 1023.6 hPa | 0 mm | - | - | - |
| 1777701670 | 8.89° C | 39% | 1023.5 hPa | 0 mm | - | - | - |
| 1777701407 | 8.89° C | 39% | 1023.5 hPa | 0 mm | - | - | - |
| 1777701370 | 8.89° C | 39% | 1023.5 hPa | 0 mm | - | - | - |
| 1777701069 | 8.89° C | 39% | 1023.5 hPa | 0 mm | - | - | - |
| 1777700769 | 8.89° C | 39% | 1023.4 hPa | 0 mm | - | - | - |
| 1777700470 | 8.89° C | 39% | 1023.5 hPa | 0 mm | - | - | - |
| 1777700170 | 8.89° C | 39% | 1023.4 hPa | 0 mm | - | - | - |
| 1777699870 | 8.89° C | 39% | 1023.6 hPa | 0 mm | - | - | - |
| 1777699570 | 8.89° C | 38% | 1023.5 hPa | 0 mm | - | - | - |
| 1777699270 | 9.44° C | 38% | 1023.5 hPa | 0 mm | - | - | - |
| 1777698970 | 9.44° C | 37% | 1023.4 hPa | 0 mm | - | - | - |
| 1777698670 | 9.44° C | 37% | 1023.4 hPa | 0 mm | - | - | - |
* Rain latest hour (hover to see other rain measurements)
** Current wind speed in m/s (hover to see current wind gust speed)